Time;durP1;ratioP1;P1;durP2;ratioP2;P2;SDS_P1;SDS_P2;PMS_P1;PMS_P2;Temp;Humidity;BMP_temperature;BMP_pressure;BME280_temperature;BME280_humidity;BME280_pressure;Samples;Min_cycle;Max_cycle;Signal;HPM_P1;HPM_P2
2023/04/25 00:00:20;;;;;;;8.40;3.80;;;;;;;5.71;52.50;99859.22;20721955;28;20259;-81
2023/04/25 00:10:22;;;;;;;9.63;3.80;;;;;;;5.85;52.25;99860.78;20718066;28;20221;-81
2023/04/25 00:20:24;;;;;;;8.83;3.40;;;;;;;5.86;52.51;99861.59;20729948;28;20618;-80
2023/04/25 00:30:26;;;;;;;8.67;3.57;;;;;;;5.81;52.72;99876.56;20748326;28;20189;-80
2023/04/25 00:40:29;;;;;;;9.53;4.83;;;;;;;5.04;55.62;99876.84;20747262;28;20271;-81
2023/04/25 00:50:33;;;;;;;9.97;4.70;;;;;;;4.73;56.27;99867.53;20672208;28;20670;-80
2023/04/25 01:00:36;;;;;;;11.00;5.07;;;;;;;5.61;55.18;99871.53;20676944;28;20248;-81
2023/04/25 01:10:38;;;;;;;7.73;3.87;;;;;;;5.59;55.25;99868.22;20627276;28;1096724;-81
2023/04/25 01:20:41;;;;;;;9.73;4.43;;;;;;;5.47;55.37;99884.75;20713328;28;20272;-81
2023/04/25 01:30:44;;;;;;;7.17;4.10;;;;;;;5.20;56.89;99880.91;20700194;28;20224;-79
2023/04/25 01:40:49;;;;;;;7.67;5.07;;;;;;;5.24;60.60;99884.75;20720715;28;20271;-79
2023/04/25 01:50:53;;;;;;;7.10;4.30;;;;;;;5.68;61.49;99887.84;20708304;28;20222;-80
2023/04/25 02:00:55;;;;;;;13.37;5.40;;;;;;;5.59;61.32;99887.81;20671797;28;20617;-80
2023/04/25 02:11:03;;;;;;;8.37;5.53;;;;;;;6.00;59.91;99885.56;20722554;28;20574;-80
2023/04/25 02:21:12;;;;;;;10.33;5.07;;;;;;;5.18;60.52;99908.38;20738400;28;20229;-79
2023/04/25 02:31:14;;;;;;;9.57;6.30;;;;;;;5.20;60.98;99922.06;20736148;28;20193;-80
2023/04/25 02:41:16;;;;;;;12.03;7.73;;;;;;;5.25;60.28;99922.78;20722609;28;20221;-80
2023/04/25 02:51:19;;;;;;;14.97;8.40;;;;;;;5.14;61.00;99918.56;20700131;28;20201;-80
2023/04/25 03:01:21;;;;;;;14.50;6.87;;;;;;;4.48;62.58;99919.22;20679790;28;20278;-81
2023/04/25 03:11:25;;;;;;;13.60;7.00;;;;;;;4.87;62.08;99925.06;20721997;28;20225;-80
2023/04/25 03:21:27;;;;;;;10.07;5.80;;;;;;;4.90;61.77;99943.16;20739046;28;20275;-80
2023/04/25 03:31:30;;;;;;;9.60;6.00;;;;;;;5.29;60.26;99943.38;20729996;28;21420;-80
2023/04/25 03:41:33;;;;;;;8.37;4.93;;;;;;;4.94;60.59;99935.81;20737201;28;20274;-80
2023/04/25 03:51:40;;;;;;;10.90;4.97;;;;;;;5.57;59.66;99960.09;20717084;28;20248;-80
2023/04/25 04:01:42;;;;;;;13.13;5.23;;;;;;;5.01;60.83;99957.78;20717923;28;20225;-81
2023/04/25 04:11:45;;;;;;;9.80;6.10;;;;;;;4.37;63.18;99977.28;20705229;28;20229;-79
2023/04/25 04:21:47;;;;;;;11.80;3.40;;;;;;;3.39;63.40;99984.84;20730547;28;20226;-78
2023/04/25 04:31:52;;;;;;;5.97;2.33;;;;;;;4.40;61.33;99982.25;20702762;28;20205;-79
2023/04/25 04:41:55;;;;;;;3.47;1.33;;;;;;;4.61;60.36;99985.47;20723932;28;20306;-79
2023/04/25 04:52:15;;;;;;;3.93;2.00;;;;;;;4.52;60.73;100004.09;20735365;28;20209;-81
2023/04/25 05:02:39;;;;;;;6.37;2.40;;;;;;;4.52;60.68;100007.72;20718260;28;20193;-80
2023/04/25 05:13:02;;;;;;;6.10;2.43;;;;;;;4.86;59.87;100034.47;20729705;28;20256;-81
2023/04/25 05:23:23;;;;;;;6.83;2.47;;;;;;;4.63;60.02;100029.91;20748745;28;20224;-80
2023/04/25 05:33:34;;;;;;;6.70;2.63;;;;;;;4.71;59.33;100051.53;20728010;28;20217;-80
2023/04/25 05:43:36;;;;;;;10.70;2.60;;;;;;;4.17;58.91;100064.28;20726363;28;20239;-81
2023/04/25 05:53:54;;;;;;;8.13;2.70;;;;;;;4.87;57.96;100064.91;20751811;28;20687;-80
2023/04/25 06:03:57;;;;;;;4.90;2.73;;;;;;;5.52;58.22;100075.03;20746516;28;20256;-80
2023/04/25 06:14:00;;;;;;;12.43;4.00;;;;;;;5.51;57.01;100090.16;20729199;28;20256;-81
2023/04/25 06:24:03;;;;;;;12.57;4.37;;;;;;;4.38;60.52;100109.47;20726856;28;20271;-81
2023/04/25 06:34:06;;;;;;;11.43;4.10;;;;;;;4.38;59.09;100103.88;20731670;28;20260;-81
2023/04/25 06:44:12;;;;;;;14.07;4.10;;;;;;;4.47;59.56;100114.06;20731845;28;20480;-81
2023/04/25 06:54:28;;;;;;;12.80;4.93;;;;;;;4.82;58.22;100117.31;20746616;28;20224;-80
2023/04/25 07:04:38;;;;;;;13.10;4.37;;;;;;;4.28;58.05;100118.84;20705004;28;20232;-80
2023/04/25 07:14:41;;;;;;;12.17;2.97;;;;;;;4.83;53.89;100117.00;20721484;28;20212;-81
2023/04/25 07:24:48;;;;;;;13.37;3.57;;;;;;;5.96;53.92;100131.13;20719560;28;20217;-81
2023/04/25 07:34:53;;;;;;;12.57;3.83;;;;;;;6.05;52.59;100133.19;20696804;28;20837;-81
2023/04/25 07:44:55;;;;;;;13.10;2.97;;;;;;;5.63;53.56;100140.88;20720503;28;20189;-80
2023/04/25 07:54:58;;;;;;;14.10;2.90;;;;;;;4.30;52.45;100160.47;20731234;28;20216;-80
2023/04/25 08:05:11;;;;;;;13.23;3.73;;;;;;;5.16;52.85;100176.50;20719022;28;20220;-80
2023/04/25 08:15:17;;;;;;;10.23;2.67;;;;;;;5.17;49.89;100186.56;20722184;28;20224;-81
2023/04/25 08:25:19;;;;;;;7.13;2.40;;;;;;;5.75;45.81;100196.34;20751785;28;20221;-80
2023/04/25 08:35:22;;;;;;;7.73;2.03;;;;;;;5.52;44.39;100207.47;20755727;28;20221;-81
2023/04/25 08:45:27;;;;;;;8.70;2.03;;;;;;;4.89;45.52;100230.44;20750285;28;20248;-81
2023/04/25 08:55:30;;;;;;;4.20;1.23;;;;;;;6.09;44.85;100230.28;20751419;28;20224;-81
2023/04/25 09:05:34;;;;;;;8.97;1.87;;;;;;;5.63;43.47;100256.50;20748746;28;20228;-81
2023/04/25 09:15:53;;;;;;;8.37;1.63;;;;;;;7.54;40.36;100262.56;20749013;28;20626;-80
2023/04/25 09:26:23;;;;;;;3.57;1.17;;;;;;;5.75;40.90;100275.59;20730622;28;20221;-80
2023/04/25 09:36:26;;;;;;;5.87;1.30;;;;;;;6.47;40.43;100267.25;20728024;28;20229;-80
2023/04/25 09:46:55;;;;;;;7.60;1.20;;;;;;;5.84;41.98;100296.13;20749585;28;20590;-81
2023/04/25 09:57:19;;;;;;;6.97;1.40;;;;;;;5.82;43.07;100297.56;20731006;28;20229;-81
2023/04/25 10:07:25;;;;;;;5.47;1.10;;;;;;;5.82;38.27;100303.19;20744412;28;20217;-81
2023/04/25 10:17:28;;;;;;;3.97;0.90;;;;;;;6.28;35.44;100305.84;20740942;28;20244;-80
2023/04/25 10:27:31;;;;;;;3.97;0.67;;;;;;;6.83;34.96;100300.13;20721865;28;20240;-80
2023/04/25 10:37:34;;;;;;;5.80;0.63;;;;;;;6.25;35.25;100315.72;20712858;28;20244;-80
2023/04/25 10:47:44;;;;;;;2.23;0.70;;;;;;;7.08;33.83;100313.50;20715646;28;20228;-81
2023/04/25 10:57:48;;;;;;;2.77;0.80;;;;;;;6.04;35.77;100338.88;20732378;28;20221;-80
2023/04/25 11:07:52;;;;;;;5.23;0.70;;;;;;;5.34;38.84;100350.28;20748111;28;20519;-80
2023/04/25 11:18:08;;;;;;;3.30;0.73;;;;;;;4.71;42.84;100367.53;20700250;28;20707;-80
2023/04/25 11:28:10;;;;;;;2.70;0.77;;;;;;;6.44;40.82;100366.06;20680473;28;20247;-80
2023/04/25 11:38:12;;;;;;;2.53;0.60;;;;;;;5.87;40.65;100370.31;20712782;28;20220;-81
2023/04/25 11:48:15;;;;;;;3.37;0.60;;;;;;;5.63;39.03;100370.50;20721797;28;20240;-81
2023/04/25 11:58:17;;;;;;;4.50;0.20;;;;;;;7.00;36.81;100364.78;20720827;28;20232;-80
2023/04/25 12:08:19;;;;;;;4.77;0.50;;;;;;;6.93;34.57;100367.22;20704153;28;20275;-80
2023/04/25 12:18:24;;;;;;;2.87;0.43;;;;;;;7.71;32.91;100363.00;20752674;28;20229;-80
2023/04/25 12:28:31;;;;;;;3.80;0.68;;;;;;;9.07;33.96;100346.81;20748468;28;20201;-80
2023/04/25 12:38:36;;;;;;;2.00;0.43;;;;;;;9.47;30.99;100347.41;20739736;28;20229;-80
2023/04/25 12:48:38;;;;;;;4.83;0.70;;;;;;;6.89;34.14;100372.63;20709338;28;20510;-80
2023/04/25 12:58:41;;;;;;;0.80;0.33;;;;;;;6.66;33.76;100377.38;20719113;28;20221;-79
2023/04/25 13:08:43;;;;;;;1.77;0.20;;;;;;;7.89;32.98;100375.97;20736598;28;20279;-80
2023/04/25 13:18:45;;;;;;;5.37;0.73;;;;;;;6.24;33.91;100394.50;20733254;28;20213;-80
2023/04/25 13:28:47;;;;;;;4.83;0.60;;;;;;;6.71;32.29;100394.06;20716711;28;20652;-79
2023/04/25 13:38:50;;;;;;;2.70;0.43;;;;;;;7.06;32.09;100388.78;20741038;28;20212;-80
2023/04/25 13:48:52;;;;;;;2.67;0.33;;;;;;;7.35;32.99;100397.63;20730513;28;20648;-79
2023/04/25 13:59:04;;;;;;;1.73;0.33;;;;;;;6.39;37.70;100422.25;20720666;28;20217;-80
2023/04/25 14:09:06;;;;;;;2.77;0.53;;;;;;;7.28;38.33;100416.03;20726582;28;20527;-80
2023/04/25 14:19:09;;;;;;;3.93;0.40;;;;;;;7.37;37.69;100406.53;20706315;28;20637;-81
2023/04/25 14:29:11;;;;;;;3.15;0.82;;;;;;;8.54;34.67;100394.91;20706141;28;20219;-80
2023/04/25 14:39:14;;;;;;;2.75;0.52;;;;;;;8.08;35.28;100381.34;20733260;28;20503;-80
2023/04/25 14:49:16;;;;;;;2.43;0.57;;;;;;;7.93;34.50;100391.03;20751420;28;20247;-80
2023/04/25 14:59:20;;;;;;;2.97;0.40;;;;;;;8.39;33.75;100398.19;20738750;28;20764;-81
2023/04/25 15:09:23;;;;;;;2.97;0.83;;;;;;;7.53;36.48;100414.56;20724000;28;20222;-81
2023/04/25 15:19:26;;;;;;;1.83;0.30;;;;;;;7.58;37.05;100426.53;20690294;28;20573;-80
2023/04/25 15:29:28;;;;;;;3.17;0.53;;;;;;;8.19;36.45;100421.25;20706307;28;20646;-80
2023/04/25 15:39:30;;;;;;;1.83;0.50;;;;;;;7.51;36.36;100437.38;20704741;28;20267;-80
2023/04/25 15:49:33;;;;;;;2.47;0.40;;;;;;;6.99;35.64;100433.28;20685489;28;20256;-80
2023/04/25 15:59:35;;;;;;;3.13;0.40;;;;;;;7.31;34.28;100435.91;20700183;28;20603;-80
2023/04/25 16:09:37;;;;;;;3.30;0.53;;;;;;;6.23;36.81;100443.31;20712199;28;20479;-79
2023/04/25 16:19:39;;;;;;;3.03;0.50;;;;;;;7.38;36.87;100447.50;20715104;28;20948;-80
2023/04/25 16:29:41;;;;;;;2.90;0.60;;;;;;;6.37;37.78;100466.59;20712378;28;20197;-81
2023/04/25 16:39:44;;;;;;;3.90;0.43;;;;;;;5.91;38.93;100464.66;20721448;28;20220;-80
2023/04/25 16:49:46;;;;;;;1.90;0.40;;;;;;;6.50;39.53;100462.94;20690880;28;20205;-81
2023/04/25 16:59:49;;;;;;;2.57;0.37;;;;;;;6.36;38.30;100464.91;20723266;28;20217;-81
2023/04/25 17:09:51;;;;;;;3.00;0.50;;;;;;;7.09;37.22;100463.97;20711974;28;20217;-81
2023/04/25 17:19:53;;;;;;;2.47;0.57;;;;;;;7.57;36.50;100471.78;20698477;28;20618;-79
2023/04/25 17:29:55;;;;;;;5.50;0.88;;;;;;;6.81;38.04;100487.59;20739397;28;20247;-80
2023/04/25 17:39:57;;;;;;;3.63;0.90;;;;;;;7.08;38.01;100487.56;20735029;28;20212;-80
2023/04/25 17:50:00;;;;;;;3.63;0.60;;;;;;;7.21;37.79;100495.13;20730129;28;20264;-80
2023/04/25 18:00:03;;;;;;;3.97;0.70;;;;;;;6.43;36.57;100499.00;20723084;28;20217;-80
2023/04/25 18:10:13;;;;;;;1.43;0.50;;;;;;;6.29;34.38;100520.59;20721780;28;20216;-80
2023/04/25 18:20:15;;;;;;;1.13;0.50;;;;;;;6.37;33.86;100533.88;20702892;28;20229;-81
2023/04/25 18:30:17;;;;;;;1.93;0.30;;;;;;;6.13;34.05;100544.41;20738418;28;20243;-80
2023/04/25 18:40:20;;;;;;;3.87;0.80;;;;;;;5.52;36.22;100567.84;20741645;28;20212;-82
2023/04/25 18:50:25;;;;;;;4.17;0.40;;;;;;;6.73;35.91;100588.16;20739178;28;20490;-83
2023/04/25 19:00:27;;;;;;;2.77;0.70;;;;;;;5.99;36.84;100578.00;20722227;28;20629;-83
2023/04/25 19:10:30;;;;;;;2.43;0.47;;;;;;;5.90;38.36;100608.69;20740941;28;20228;-82
2023/04/25 19:20:32;;;;;;;7.97;1.17;;;;;;;6.46;37.82;100616.16;20739135;28;20696;-83
2023/04/25 19:30:34;;;;;;;1.60;0.60;;;;;;;6.54;38.02;100621.06;20753717;28;20506;-83
2023/04/25 19:40:37;;;;;;;2.57;0.57;;;;;;;5.51;40.02;100638.97;20752331;28;20267;-82
2023/04/25 19:50:39;;;;;;;5.83;1.00;;;;;;;6.31;38.70;100647.28;20732371;28;20190;-81
2023/04/25 20:00:41;;;;;;;4.67;1.00;;;;;;;4.92;41.30;100666.22;20722453;28;20688;-82
2023/04/25 20:10:44;;;;;;;3.70;0.97;;;;;;;5.26;40.33;100657.75;20695990;28;20703;-83
2023/04/25 20:20:46;;;;;;;3.67;0.80;;;;;;;5.29;40.07;100659.09;20676195;28;20225;-82
2023/04/25 20:30:49;;;;;;;7.97;0.70;;;;;;;5.50;39.31;100670.91;20715815;28;20190;-83
2023/04/25 20:40:52;;;;;;;4.13;0.80;;;;;;;5.21;39.99;100674.59;20763162;28;20221;-83
2023/04/25 20:50:55;;;;;;;8.50;0.90;;;;;;;4.80;40.57;100673.38;20749477;28;20610;-83
2023/04/25 21:00:57;;;;;;;1.97;0.60;;;;;;;5.10;40.26;100673.03;20744670;28;20267;-83
2023/04/25 21:11:00;;;;;;;5.13;1.00;;;;;;;4.82;41.27;100679.50;20762850;28;20221;-83
2023/04/25 21:21:03;;;;;;;2.87;0.80;;;;;;;5.12;41.79;100687.56;20743218;28;20221;-82
2023/04/25 21:31:05;;;;;;;3.10;1.20;;;;;;;5.13;42.09;100694.00;20745227;28;20193;-82
2023/04/25 21:41:07;;;;;;;4.63;1.43;;;;;;;4.92;43.58;100698.97;20773330;28;20221;-82
2023/04/25 21:51:09;;;;;;;9.40;1.10;;;;;;;4.38;44.54;100700.03;20763819;28;20271;-81
2023/04/25 22:01:11;;;;;;;4.03;0.90;;;;;;;4.62;45.33;100702.91;20763500;28;20570;-81
2023/04/25 22:11:13;;;;;;;3.43;1.03;;;;;;;4.35;45.28;100714.59;20761306;28;20221;-82
2023/04/25 22:21:16;;;;;;;3.00;1.07;;;;;;;4.28;45.46;100724.44;20760574;28;20225;-81
2023/04/25 22:31:19;;;;;;;4.83;1.47;;;;;;;4.24;45.77;100727.00;20758813;28;20201;-81
2023/04/25 22:41:22;;;;;;;6.80;1.80;;;;;;;4.21;46.31;100727.56;20759916;28;20275;-81
2023/04/25 22:51:24;;;;;;;3.23;1.43;;;;;;;4.10;46.24;100751.91;20725775;28;20255;-81
2023/04/25 23:01:27;;;;;;;5.80;1.53;;;;;;;4.06;46.55;100749.97;20758018;28;20220;-80
2023/04/25 23:11:30;;;;;;;4.03;1.53;;;;;;;3.82;47.27;100761.84;20740543;28;20221;-81
2023/04/25 23:21:32;;;;;;;4.50;1.67;;;;;;;3.61;47.96;100763.03;20739668;28;20252;-81
2023/04/25 23:31:35;;;;;;;8.30;2.13;;;;;;;3.79;47.21;100770.78;20750058;28;20247;-83
2023/04/25 23:41:37;;;;;;;6.97;1.87;;;;;;;3.85;46.69;100775.22;20722381;28;20228;-82
2023/04/25 23:51:39;;;;;;;3.43;1.60;;;;;;;3.58;47.42;100773.97;20755404;28;20248;-83
